EDT,Max TemperatureF,Mean TemperatureF,Min TemperatureF,Max Dew PointF,MeanDew PointF,Min DewpointF,Max Humidity, Mean Humidity, Min Humidity, Max Sea Level PressureIn, Mean Sea Level PressureIn, Min Sea Level PressureIn, Max VisibilityMiles, Mean VisibilityMiles, Min VisibilityMiles, Max Wind SpeedMPH, Mean Wind SpeedMPH, Max Gust SpeedMPH,PrecipitationIn, CloudCover, Events, WindDirDegrees
2012-10-1,65,52,39,48,44,38,93,73,47,29.96,29.90,29.84,10,9,0,7,1,,0.00,1,Fog-Rain,93
2012-10-2,67,60,52,55,50,47,87,71,53,29.92,29.86,29.81,10,10,5,14,4,18,0.00,7,Rain,70
2012-10-3,62,58,55,58,56,53,95,91,78,30.06,29.98,29.91,10,4,1,12,3,,0.00,8,Rain,183
2012-10-4,77,64,52,59,54,50,95,74,38,30.11,30.06,30.00,10,7,2,23,4,29,0.00,4,Rain,219
2012-10-5,59,50,42,55,44,39,90,82,62,30.11,30.07,30.01,10,10,7,12,6,16,0.00,6,Rain,258
2012-10-6,47,42,36,40,36,33,93,80,60,30.14,30.07,29.99,10,10,7,16,6,22,0.00,6,Rain,254
2012-10-7,46,40,35,40,37,31,90,81,58,30.16,30.12,30.09,10,10,5,12,3,17,0.00,8,Rain,273
2012-10-8,55,43,31,34,30,27,94,66,34,30.21,30.14,30.08,10,10,10,14,5,18,0.00,1,,199
2012-10-9,62,50,37,40,36,31,78,57,39,30.09,29.97,29.83,10,10,10,21,9,26,0.00,1,,199
2012-10-10,55,46,36,45,36,28,93,74,49,30.18,30.00,29.83,10,9,5,21,9,29,0.00,7,Rain,267
2012-10-11,62,46,31,41,33,29,92,64,32,30.21,30.13,30.05,10,10,10,17,6,28,0.00,1,,222
2012-10-12,52,43,34,40,33,24,93,69,34,30.46,30.36,30.21,10,10,7,12,4,,0.00,2,Rain,55
2012-10-13,64,50,38,62,42,29,94,80,65,30.34,30.11,29.88,10,8,2,15,6,20,0.00,5,Rain,155
2012-10-14,71,61,51,63,59,49,94,83,54,29.87,29.65,29.45,10,7,3,23,13,39,0.00,7,Rain,206
2012-10-15,51,44,38,49,44,36,94,87,64,29.98,29.85,29.67,10,7,2,14,8,22,0.00,7,Rain,295
2012-10-16,62,47,32,43,38,31,98,73,48,29.98,29.87,29.67,10,7,0,15,4,22,0.00,2,Fog,168
2012-10-17,72,63,54,55,49,44,91,67,37,29.67,29.60,29.47,10,10,5,28,13,34,0.00,4,Rain,180
2012-10-18,59,52,45,55,43,32,92,71,40,29.63,29.48,29.31,10,10,7,24,12,31,0.00,6,Rain,206
2012-10-19,50,47,44,48,44,41,95,91,87,29.61,29.54,29.50,10,8,2,12,6,,0.00,8,Rain,178
2012-10-20,54,49,44,49,44,42,95,87,68,29.93,29.75,29.59,10,8,3,15,5,24,0.00,8,Rain,255
2012-10-21,62,50,38,48,43,36,95,77,55,30.10,30.04,29.92,10,9,3,12,4,16,0.00,1,,183
2012-10-22,67,56,44,60,52,42,94,84,62,30.06,30.01,29.92,10,8,3,14,2,20,0.00,4,Rain,180
2012-10-23,68,64,59,62,59,57,93,86,78,30.00,29.95,29.90,10,9,4,12,3,23,0.00,7,Rain,204
2012-10-24,77,68,58,61,59,56,93,76,55,30.01,29.97,29.94,10,9,5,15,5,18,0.00,2,Rain,187
2012-10-25,76,67,57,59,56,51,83,67,53,29.96,29.88,29.80,10,10,10,23,10,30,0.00,2,,186
2012-10-26,54,47,40,50,36,31,90,69,53,30.26,30.18,29.92,10,9,5,20,11,23,0.00,4,Rain,331
2012-10-27,51,42,33,35,31,28,89,67,42,30.27,30.22,30.17,10,10,10,12,6,17,0.00,0,,348
2012-10-28,46,40,34,33,30,25,84,67,51,30.24,30.21,30.16,10,10,10,13,6,22,0.00,3,,11
2012-10-29,46,40,34,28,24,18,74,53,35,30.18,30.09,29.87,10,10,10,18,10,29,0.00,0,,347
2012-10-30,41,39,37,37,32,22,89,77,47,29.85,29.67,29.60,10,8,3,21,15,32,0.00,7,Rain,336
2012-10-31,43,40,37,37,35,34,90,83,72,29.76,29.68,29.63,10,9,5,23,12,31,0.00,8,Rain,316